sensor_id;sensor_type;location;lat;lon;timestamp;temperature;humidity
16829;DHT22;8531;48.078;11.968;2023-08-30T00:01:33;12.90;99.90
16829;DHT22;8531;48.078;11.968;2023-08-30T00:03:59;12.90;99.90
16829;DHT22;8531;48.078;11.968;2023-08-30T00:06:25;12.90;99.90
16829;DHT22;8531;48.078;11.968;2023-08-30T00:08:51;13.00;99.90
16829;DHT22;8531;48.078;11.968;2023-08-30T00:11:17;13.00;99.90
16829;DHT22;8531;48.078;11.968;2023-08-30T00:13:42;13.00;99.90
16829;DHT22;8531;48.078;11.968;2023-08-30T00:16:08;13.00;99.90
16829;DHT22;8531;48.078;11.968;2023-08-30T00:18:34;13.00;99.90
16829;DHT22;8531;48.078;11.968;2023-08-30T00:20:59;13.00;99.90
16829;DHT22;8531;48.078;11.968;2023-08-30T00:23:25;13.10;99.90
16829;DHT22;8531;48.078;11.968;2023-08-30T00:25:51;13.00;99.90
16829;DHT22;8531;48.078;11.968;2023-08-30T00:28:16;13.00;99.90
16829;DHT22;8531;48.078;11.968;2023-08-30T00:30:42;13.00;99.90
16829;DHT22;8531;48.078;11.968;2023-08-30T00:33:08;12.90;99.90
16829;DHT22;8531;48.078;11.968;2023-08-30T00:35:33;12.90;99.90
16829;DHT22;8531;48.078;11.968;2023-08-30T00:37:59;12.90;99.90
16829;DHT22;8531;48.078;11.968;2023-08-30T00:40:25;12.90;99.90
16829;DHT22;8531;48.078;11.968;2023-08-30T00:42:51;13.00;99.90
16829;DHT22;8531;48.078;11.968;2023-08-30T00:45:17;12.90;99.90
16829;DHT22;8531;48.078;11.968;2023-08-30T00:47:42;12.90;99.90
16829;DHT22;8531;48.078;11.968;2023-08-30T00:50:09;12.90;99.90
16829;DHT22;8531;48.078;11.968;2023-08-30T00:52:35;12.90;99.90
16829;DHT22;8531;48.078;11.968;2023-08-30T00:55:01;12.90;99.90
16829;DHT22;8531;48.078;11.968;2023-08-30T00:57:26;12.90;99.90
16829;DHT22;8531;48.078;11.968;2023-08-30T00:59:53;12.90;99.90
16829;DHT22;8531;48.078;11.968;2023-08-30T01:02:20;12.90;99.90
16829;DHT22;8531;48.078;11.968;2023-08-30T01:04:45;12.90;99.90
16829;DHT22;8531;48.078;11.968;2023-08-30T01:07:11;12.90;99.90
16829;DHT22;8531;48.078;11.968;2023-08-30T01:09:37;12.90;99.90
16829;DHT22;8531;48.078;11.968;2023-08-30T01:12:55;12.90;99.90
16829;DHT22;8531;48.078;11.968;2023-08-30T01:15:22;12.90;99.90
16829;DHT22;8531;48.078;11.968;2023-08-30T01:17:51;12.80;99.90
16829;DHT22;8531;48.078;11.968;2023-08-30T01:20:19;12.90;99.90
16829;DHT22;8531;48.078;11.968;2023-08-30T01:23:06;12.80;99.90
16829;DHT22;8531;48.078;11.968;2023-08-30T01:28:04;12.90;99.90
16829;DHT22;8531;48.078;11.968;2023-08-30T01:30:32;12.80;99.90
16829;DHT22;8531;48.078;11.968;2023-08-30T01:33:00;12.80;99.90
16829;DHT22;8531;48.078;11.968;2023-08-30T01:35:27;12.70;99.90
16829;DHT22;8531;48.078;11.968;2023-08-30T01:37:58;12.70;99.90
16829;DHT22;8531;48.078;11.968;2023-08-30T01:40:26;12.70;99.90
16829;DHT22;8531;48.078;11.968;2023-08-30T01:42:53;12.60;99.90
16829;DHT22;8531;48.078;11.968;2023-08-30T01:45:20;12.60;99.90
16829;DHT22;8531;48.078;11.968;2023-08-30T01:47:48;12.60;99.90
16829;DHT22;8531;48.078;11.968;2023-08-30T01:50:15;12.50;99.90
16829;DHT22;8531;48.078;11.968;2023-08-30T01:52:41;12.60;99.90
16829;DHT22;8531;48.078;11.968;2023-08-30T01:55:08;12.60;99.90
16829;DHT22;8531;48.078;11.968;2023-08-30T01:57:35;12.60;99.90
16829;DHT22;8531;48.078;11.968;2023-08-30T02:00:01;12.60;99.90
16829;DHT22;8531;48.078;11.968;2023-08-30T02:02:30;12.70;99.90
16829;DHT22;8531;48.078;11.968;2023-08-30T02:04:56;12.60;99.90
16829;DHT22;8531;48.078;11.968;2023-08-30T02:07:28;12.70;99.90
16829;DHT22;8531;48.078;11.968;2023-08-30T02:10:01;12.60;99.90
16829;DHT22;8531;48.078;11.968;2023-08-30T02:12:33;12.60;99.90
16829;DHT22;8531;48.078;11.968;2023-08-30T02:15:02;12.60;99.90
16829;DHT22;8531;48.078;11.968;2023-08-30T02:17:29;12.60;99.90
16829;DHT22;8531;48.078;11.968;2023-08-30T02:19:55;12.60;99.90
16829;DHT22;8531;48.078;11.968;2023-08-30T02:22:21;12.60;99.90
16829;DHT22;8531;48.078;11.968;2023-08-30T02:24:47;12.50;99.90
16829;DHT22;8531;48.078;11.968;2023-08-30T02:27:13;12.50;99.90
16829;DHT22;8531;48.078;11.968;2023-08-30T02:29:38;12.60;99.90
16829;DHT22;8531;48.078;11.968;2023-08-30T02:32:04;12.50;99.90
16829;DHT22;8531;48.078;11.968;2023-08-30T02:34:30;12.50;99.90
16829;DHT22;8531;48.078;11.968;2023-08-30T02:36:56;12.60;99.90
16829;DHT22;8531;48.078;11.968;2023-08-30T02:39:21;12.60;99.90
16829;DHT22;8531;48.078;11.968;2023-08-30T02:41:47;12.60;99.90
16829;DHT22;8531;48.078;11.968;2023-08-30T02:44:13;12.70;99.90
16829;DHT22;8531;48.078;11.968;2023-08-30T02:46:39;12.60;99.90
16829;DHT22;8531;48.078;11.968;2023-08-30T02:49:05;12.70;99.90
16829;DHT22;8531;48.078;11.968;2023-08-30T02:51:31;12.70;99.90
16829;DHT22;8531;48.078;11.968;2023-08-30T02:53:57;12.60;99.90
16829;DHT22;8531;48.078;11.968;2023-08-30T02:56:22;12.60;99.90
16829;DHT22;8531;48.078;11.968;2023-08-30T02:58:48;12.60;99.90
16829;DHT22;8531;48.078;11.968;2023-08-30T03:01:14;12.60;99.90
16829;DHT22;8531;48.078;11.968;2023-08-30T03:03:39;12.60;99.90
16829;DHT22;8531;48.078;11.968;2023-08-30T03:06:05;12.60;99.90
16829;DHT22;8531;48.078;11.968;2023-08-30T03:08:31;12.60;99.90
16829;DHT22;8531;48.078;11.968;2023-08-30T03:11:08;12.60;99.90
16829;DHT22;8531;48.078;11.968;2023-08-30T03:13:34;12.70;99.90
16829;DHT22;8531;48.078;11.968;2023-08-30T03:16:00;12.60;99.90
16829;DHT22;8531;48.078;11.968;2023-08-30T03:18:25;12.70;99.90
16829;DHT22;8531;48.078;11.968;2023-08-30T03:21:00;12.70;99.90
16829;DHT22;8531;48.078;11.968;2023-08-30T03:23:27;12.70;99.90
16829;DHT22;8531;48.078;11.968;2023-08-30T03:25:52;12.70;99.90
16829;DHT22;8531;48.078;11.968;2023-08-30T03:28:18;12.70;99.90
16829;DHT22;8531;48.078;11.968;2023-08-30T03:30:44;12.80;99.90
16829;DHT22;8531;48.078;11.968;2023-08-30T03:33:09;12.70;99.90
16829;DHT22;8531;48.078;11.968;2023-08-30T03:35:35;12.70;99.90
16829;DHT22;8531;48.078;11.968;2023-08-30T03:38:01;12.70;99.90
16829;DHT22;8531;48.078;11.968;2023-08-30T03:40:26;12.70;99.90
16829;DHT22;8531;48.078;11.968;2023-08-30T03:42:53;12.70;99.90
16829;DHT22;8531;48.078;11.968;2023-08-30T03:45:18;12.70;99.90
16829;DHT22;8531;48.078;11.968;2023-08-30T03:47:44;12.70;99.90
16829;DHT22;8531;48.078;11.968;2023-08-30T03:50:09;12.70;99.90
16829;DHT22;8531;48.078;11.968;2023-08-30T03:52:35;12.70;99.90
16829;DHT22;8531;48.078;11.968;2023-08-30T03:55:01;12.70;99.90
16829;DHT22;8531;48.078;11.968;2023-08-30T03:57:27;12.70;99.90
16829;DHT22;8531;48.078;11.968;2023-08-30T03:59:53;12.70;99.90
16829;DHT22;8531;48.078;11.968;2023-08-30T04:02:18;12.70;99.90
16829;DHT22;8531;48.078;11.968;2023-08-30T04:04:46;12.70;99.90
16829;DHT22;8531;48.078;11.968;2023-08-30T04:07:13;12.80;99.90
16829;DHT22;8531;48.078;11.968;2023-08-30T04:09:39;12.70;99.90
16829;DHT22;8531;48.078;11.968;2023-08-30T04:12:04;12.70;99.90
16829;DHT22;8531;48.078;11.968;2023-08-30T04:14:30;12.70;99.90
16829;DHT22;8531;48.078;11.968;2023-08-30T04:16:56;12.70;99.90
16829;DHT22;8531;48.078;11.968;2023-08-30T04:19:22;12.70;99.90
16829;DHT22;8531;48.078;11.968;2023-08-30T04:21:48;12.70;99.90
16829;DHT22;8531;48.078;11.968;2023-08-30T04:24:14;12.70;99.90
16829;DHT22;8531;48.078;11.968;2023-08-30T04:26:40;12.70;99.90
16829;DHT22;8531;48.078;11.968;2023-08-30T04:29:06;12.70;99.90
16829;DHT22;8531;48.078;11.968;2023-08-30T04:31:32;12.70;99.90
16829;DHT22;8531;48.078;11.968;2023-08-30T04:33:58;12.70;99.90
16829;DHT22;8531;48.078;11.968;2023-08-30T04:36:23;12.70;99.90
16829;DHT22;8531;48.078;11.968;2023-08-30T04:38:49;12.70;99.90
16829;DHT22;8531;48.078;11.968;2023-08-30T04:41:15;12.70;99.90
16829;DHT22;8531;48.078;11.968;2023-08-30T04:43:40;12.70;99.90
16829;DHT22;8531;48.078;11.968;2023-08-30T04:46:06;12.70;99.90
16829;DHT22;8531;48.078;11.968;2023-08-30T04:48:31;12.70;99.90
16829;DHT22;8531;48.078;11.968;2023-08-30T04:51:04;12.70;99.90
16829;DHT22;8531;48.078;11.968;2023-08-30T04:53:30;12.70;99.90
16829;DHT22;8531;48.078;11.968;2023-08-30T04:55:56;12.70;99.90
16829;DHT22;8531;48.078;11.968;2023-08-30T04:58:21;12.70;99.90
16829;DHT22;8531;48.078;11.968;2023-08-30T05:00:47;12.70;99.90
16829;DHT22;8531;48.078;11.968;2023-08-30T05:03:13;12.70;99.90
16829;DHT22;8531;48.078;11.968;2023-08-30T05:05:39;12.70;99.90
16829;DHT22;8531;48.078;11.968;2023-08-30T05:08:05;12.70;99.90
16829;DHT22;8531;48.078;11.968;2023-08-30T05:10:30;12.70;99.90
16829;DHT22;8531;48.078;11.968;2023-08-30T05:12:57;12.70;99.90
16829;DHT22;8531;48.078;11.968;2023-08-30T05:15:23;12.70;99.90
16829;DHT22;8531;48.078;11.968;2023-08-30T05:17:48;12.70;99.90
16829;DHT22;8531;48.078;11.968;2023-08-30T05:20:14;12.70;99.90
16829;DHT22;8531;48.078;11.968;2023-08-30T05:22:40;12.70;99.90
16829;DHT22;8531;48.078;11.968;2023-08-30T05:25:06;12.70;99.90
16829;DHT22;8531;48.078;11.968;2023-08-30T05:27:31;12.70;99.90
16829;DHT22;8531;48.078;11.968;2023-08-30T05:29:57;12.70;99.90
16829;DHT22;8531;48.078;11.968;2023-08-30T05:32:23;12.70;99.90
16829;DHT22;8531;48.078;11.968;2023-08-30T05:34:48;12.70;99.90
16829;DHT22;8531;48.078;11.968;2023-08-30T05:37:14;12.70;99.90
16829;DHT22;8531;48.078;11.968;2023-08-30T05:39:40;12.70;99.90
16829;DHT22;8531;48.078;11.968;2023-08-30T05:42:05;12.70;99.90
16829;DHT22;8531;48.078;11.968;2023-08-30T05:44:31;12.80;99.90
16829;DHT22;8531;48.078;11.968;2023-08-30T05:46:57;12.80;99.90
16829;DHT22;8531;48.078;11.968;2023-08-30T05:49:22;12.80;99.90
16829;DHT22;8531;48.078;11.968;2023-08-30T05:51:48;12.80;99.90
16829;DHT22;8531;48.078;11.968;2023-08-30T05:54:14;12.80;99.90
16829;DHT22;8531;48.078;11.968;2023-08-30T05:56:40;12.80;99.90
16829;DHT22;8531;48.078;11.968;2023-08-30T05:59:07;12.80;99.90
16829;DHT22;8531;48.078;11.968;2023-08-30T06:01:33;12.80;99.90
16829;DHT22;8531;48.078;11.968;2023-08-30T06:03:58;12.80;99.90
16829;DHT22;8531;48.078;11.968;2023-08-30T06:06:24;12.90;99.90
16829;DHT22;8531;48.078;11.968;2023-08-30T06:08:50;12.90;99.90
16829;DHT22;8531;48.078;11.968;2023-08-30T06:11:15;13.00;99.90
16829;DHT22;8531;48.078;11.968;2023-08-30T06:13:41;13.00;99.90
16829;DHT22;8531;48.078;11.968;2023-08-30T06:16:07;12.90;99.90
16829;DHT22;8531;48.078;11.968;2023-08-30T06:18:33;12.90;99.90
16829;DHT22;8531;48.078;11.968;2023-08-30T06:20:58;12.90;99.90
16829;DHT22;8531;48.078;11.968;2023-08-30T06:23:24;13.00;99.90
16829;DHT22;8531;48.078;11.968;2023-08-30T06:25:54;13.00;99.90
16829;DHT22;8531;48.078;11.968;2023-08-30T06:28:20;13.00;99.90
16829;DHT22;8531;48.078;11.968;2023-08-30T06:30:46;13.10;99.90
16829;DHT22;8531;48.078;11.968;2023-08-30T06:33:11;13.00;99.90
16829;DHT22;8531;48.078;11.968;2023-08-30T06:35:37;13.10;99.90
16829;DHT22;8531;48.078;11.968;2023-08-30T06:38:05;13.10;99.90
16829;DHT22;8531;48.078;11.968;2023-08-30T06:40:30;13.10;99.90
16829;DHT22;8531;48.078;11.968;2023-08-30T06:42:56;13.10;99.90
16829;DHT22;8531;48.078;11.968;2023-08-30T06:45:24;13.20;99.90
16829;DHT22;8531;48.078;11.968;2023-08-30T06:47:50;13.20;99.90
16829;DHT22;8531;48.078;11.968;2023-08-30T06:50:17;13.20;99.90
16829;DHT22;8531;48.078;11.968;2023-08-30T06:52:43;13.20;99.90
16829;DHT22;8531;48.078;11.968;2023-08-30T06:55:09;13.20;99.90
16829;DHT22;8531;48.078;11.968;2023-08-30T06:57:35;13.30;99.90
16829;DHT22;8531;48.078;11.968;2023-08-30T07:00:00;13.30;99.90
16829;DHT22;8531;48.078;11.968;2023-08-30T07:02:36;13.30;99.90
16829;DHT22;8531;48.078;11.968;2023-08-30T07:05:02;13.30;99.90
16829;DHT22;8531;48.078;11.968;2023-08-30T07:07:30;13.40;99.90
16829;DHT22;8531;48.078;11.968;2023-08-30T07:09:56;13.40;99.90
16829;DHT22;8531;48.078;11.968;2023-08-30T07:12:21;13.50;99.90
16829;DHT22;8531;48.078;11.968;2023-08-30T07:14:47;13.50;99.90
16829;DHT22;8531;48.078;11.968;2023-08-30T07:17:13;13.50;99.90
16829;DHT22;8531;48.078;11.968;2023-08-30T07:19:39;13.50;99.90
16829;DHT22;8531;48.078;11.968;2023-08-30T07:22:05;13.40;99.90
16829;DHT22;8531;48.078;11.968;2023-08-30T07:24:30;13.50;99.90
16829;DHT22;8531;48.078;11.968;2023-08-30T07:26:56;13.50;99.90
16829;DHT22;8531;48.078;11.968;2023-08-30T07:29:22;13.60;99.90
16829;DHT22;8531;48.078;11.968;2023-08-30T07:31:47;13.60;99.90
16829;DHT22;8531;48.078;11.968;2023-08-30T07:34:13;13.60;99.90
16829;DHT22;8531;48.078;11.968;2023-08-30T07:36:39;13.60;99.90
16829;DHT22;8531;48.078;11.968;2023-08-30T07:39:04;13.70;99.90
16829;DHT22;8531;48.078;11.968;2023-08-30T07:41:33;13.70;99.90
16829;DHT22;8531;48.078;11.968;2023-08-30T07:43:59;13.60;99.90
16829;DHT22;8531;48.078;11.968;2023-08-30T07:46:25;13.70;99.90
16829;DHT22;8531;48.078;11.968;2023-08-30T07:48:51;13.70;99.90
16829;DHT22;8531;48.078;11.968;2023-08-30T07:51:17;13.70;99.90
16829;DHT22;8531;48.078;11.968;2023-08-30T07:53:43;13.80;99.90
16829;DHT22;8531;48.078;11.968;2023-08-30T07:56:08;13.80;99.90
16829;DHT22;8531;48.078;11.968;2023-08-30T07:58:34;13.80;99.90
16829;DHT22;8531;48.078;11.968;2023-08-30T08:01:00;13.80;99.90
16829;DHT22;8531;48.078;11.968;2023-08-30T08:03:25;13.80;99.90
16829;DHT22;8531;48.078;11.968;2023-08-30T08:05:51;13.90;99.90
16829;DHT22;8531;48.078;11.968;2023-08-30T08:08:17;14.00;99.90
16829;DHT22;8531;48.078;11.968;2023-08-30T08:10:43;14.10;99.90
16829;DHT22;8531;48.078;11.968;2023-08-30T08:13:09;14.00;99.90
16829;DHT22;8531;48.078;11.968;2023-08-30T08:15:37;14.10;99.90
16829;DHT22;8531;48.078;11.968;2023-08-30T08:18:03;14.10;99.90
16829;DHT22;8531;48.078;11.968;2023-08-30T08:20:29;14.10;99.90
16829;DHT22;8531;48.078;11.968;2023-08-30T08:22:57;14.20;99.90
16829;DHT22;8531;48.078;11.968;2023-08-30T08:25:23;14.10;99.90
16829;DHT22;8531;48.078;11.968;2023-08-30T08:27:49;14.00;99.90
16829;DHT22;8531;48.078;11.968;2023-08-30T08:30:16;14.00;99.90
16829;DHT22;8531;48.078;11.968;2023-08-30T08:32:42;14.00;99.90
16829;DHT22;8531;48.078;11.968;2023-08-30T08:35:08;14.10;99.90
16829;DHT22;8531;48.078;11.968;2023-08-30T08:37:34;14.20;99.90
16829;DHT22;8531;48.078;11.968;2023-08-30T08:40:00;14.20;99.90
16829;DHT22;8531;48.078;11.968;2023-08-30T08:42:29;14.20;99.90
16829;DHT22;8531;48.078;11.968;2023-08-30T08:44:56;14.20;99.90
16829;DHT22;8531;48.078;11.968;2023-08-30T08:47:22;14.30;99.90
16829;DHT22;8531;48.078;11.968;2023-08-30T08:49:48;14.40;99.90
16829;DHT22;8531;48.078;11.968;2023-08-30T08:52:15;14.40;99.90
16829;DHT22;8531;48.078;11.968;2023-08-30T08:54:41;14.30;99.90
16829;DHT22;8531;48.078;11.968;2023-08-30T08:57:08;14.40;99.90
16829;DHT22;8531;48.078;11.968;2023-08-30T08:59:34;14.50;99.90
16829;DHT22;8531;48.078;11.968;2023-08-30T09:02:03;14.60;99.90
16829;DHT22;8531;48.078;11.968;2023-08-30T09:04:30;14.70;99.90
16829;DHT22;8531;48.078;11.968;2023-08-30T09:06:58;14.90;99.90
16829;DHT22;8531;48.078;11.968;2023-08-30T09:09:24;15.00;99.90
16829;DHT22;8531;48.078;11.968;2023-08-30T09:11:49;15.00;99.90
16829;DHT22;8531;48.078;11.968;2023-08-30T09:14:15;15.10;99.90
16829;DHT22;8531;48.078;11.968;2023-08-30T09:16:41;15.00;99.90
16829;DHT22;8531;48.078;11.968;2023-08-30T09:19:06;15.00;99.90
16829;DHT22;8531;48.078;11.968;2023-08-30T09:21:33;15.10;99.90
16829;DHT22;8531;48.078;11.968;2023-08-30T09:26:25;15.40;99.90
16829;DHT22;8531;48.078;11.968;2023-08-30T09:28:50;15.50;99.90
16829;DHT22;8531;48.078;11.968;2023-08-30T09:31:19;15.50;99.90
16829;DHT22;8531;48.078;11.968;2023-08-30T09:33:46;15.50;99.90
16829;DHT22;8531;48.078;11.968;2023-08-30T09:36:17;15.50;99.90
16829;DHT22;8531;48.078;11.968;2023-08-30T09:38:48;15.50;99.90
16829;DHT22;8531;48.078;11.968;2023-08-30T09:41:14;15.50;99.90
16829;DHT22;8531;48.078;11.968;2023-08-30T09:43:43;15.40;99.90
16829;DHT22;8531;48.078;11.968;2023-08-30T09:46:09;15.50;99.90
16829;DHT22;8531;48.078;11.968;2023-08-30T09:48:37;15.50;99.90
16829;DHT22;8531;48.078;11.968;2023-08-30T09:51:08;15.60;99.90
16829;DHT22;8531;48.078;11.968;2023-08-30T09:53:42;15.60;99.90
16829;DHT22;8531;48.078;11.968;2023-08-30T09:56:12;15.70;99.90
16829;DHT22;8531;48.078;11.968;2023-08-30T09:58:40;15.70;99.90
16829;DHT22;8531;48.078;11.968;2023-08-30T10:01:28;15.70;99.90
16829;DHT22;8531;48.078;11.968;2023-08-30T10:03:58;15.90;99.90
16829;DHT22;8531;48.078;11.968;2023-08-30T10:06:28;16.10;99.90
16829;DHT22;8531;48.078;11.968;2023-08-30T10:08:56;16.20;99.90
16829;DHT22;8531;48.078;11.968;2023-08-30T10:11:28;16.30;99.90
16829;DHT22;8531;48.078;11.968;2023-08-30T10:13:55;16.40;99.90
16829;DHT22;8531;48.078;11.968;2023-08-30T10:16:24;16.70;99.90
16829;DHT22;8531;48.078;11.968;2023-08-30T10:19:01;17.00;99.90
16829;DHT22;8531;48.078;11.968;2023-08-30T10:21:29;17.30;99.90
16829;DHT22;8531;48.078;11.968;2023-08-30T10:23:56;17.40;99.90
16829;DHT22;8531;48.078;11.968;2023-08-30T10:26:25;17.40;99.90
16829;DHT22;8531;48.078;11.968;2023-08-30T10:28:55;17.30;99.90
16829;DHT22;8531;48.078;11.968;2023-08-30T10:31:22;17.30;99.90
16829;DHT22;8531;48.078;11.968;2023-08-30T10:33:53;17.30;99.90
16829;DHT22;8531;48.078;11.968;2023-08-30T10:36:28;17.30;99.90
16829;DHT22;8531;48.078;11.968;2023-08-30T10:38:54;17.30;99.90
16829;DHT22;8531;48.078;11.968;2023-08-30T10:41:25;17.20;99.90
16829;DHT22;8531;48.078;11.968;2023-08-30T10:43:52;17.10;99.90
16829;DHT22;8531;48.078;11.968;2023-08-30T10:46:31;17.00;99.90
16829;DHT22;8531;48.078;11.968;2023-08-30T10:49:09;16.90;99.90
16829;DHT22;8531;48.078;11.968;2023-08-30T10:51:39;16.90;99.90
16829;DHT22;8531;48.078;11.968;2023-08-30T10:54:15;16.80;99.90
16829;DHT22;8531;48.078;11.968;2023-08-30T10:56:57;16.70;99.90
16829;DHT22;8531;48.078;11.968;2023-08-30T10:59:25;16.70;99.90
16829;DHT22;8531;48.078;11.968;2023-08-30T11:01:51;16.70;99.90
16829;DHT22;8531;48.078;11.968;2023-08-30T11:04:18;16.70;99.90
16829;DHT22;8531;48.078;11.968;2023-08-30T11:06:46;16.70;99.90
16829;DHT22;8531;48.078;11.968;2023-08-30T11:09:16;16.80;99.90
16829;DHT22;8531;48.078;11.968;2023-08-30T11:11:48;17.10;99.90
16829;DHT22;8531;48.078;11.968;2023-08-30T11:14:15;17.30;99.90
16829;DHT22;8531;48.078;11.968;2023-08-30T11:16:41;17.60;99.90
16829;DHT22;8531;48.078;11.968;2023-08-30T11:19:09;17.80;99.90
16829;DHT22;8531;48.078;11.968;2023-08-30T11:21:37;17.90;99.90
16829;DHT22;8531;48.078;11.968;2023-08-30T11:24:04;18.00;99.90
16829;DHT22;8531;48.078;11.968;2023-08-30T11:26:30;18.10;99.90
16829;DHT22;8531;48.078;11.968;2023-08-30T11:28:56;18.40;99.90
16829;DHT22;8531;48.078;11.968;2023-08-30T11:31:23;18.70;99.90
16829;DHT22;8531;48.078;11.968;2023-08-30T11:33:56;19.00;99.90
16829;DHT22;8531;48.078;11.968;2023-08-30T11:36:24;19.10;99.90
16829;DHT22;8531;48.078;11.968;2023-08-30T11:38:52;19.20;99.90
16829;DHT22;8531;48.078;11.968;2023-08-30T11:41:20;19.20;99.90
16829;DHT22;8531;48.078;11.968;2023-08-30T11:43:47;19.60;99.90
16829;DHT22;8531;48.078;11.968;2023-08-30T11:46:13;19.80;99.90
16829;DHT22;8531;48.078;11.968;2023-08-30T11:48:42;19.80;99.90
16829;DHT22;8531;48.078;11.968;2023-08-30T11:51:09;19.80;99.90
16829;DHT22;8531;48.078;11.968;2023-08-30T11:53:34;19.70;99.90
16829;DHT22;8531;48.078;11.968;2023-08-30T11:56:01;19.90;99.90
16829;DHT22;8531;48.078;11.968;2023-08-30T11:58:27;19.90;99.90
16829;DHT22;8531;48.078;11.968;2023-08-30T12:00:54;20.20;99.90
16829;DHT22;8531;48.078;11.968;2023-08-30T12:03:20;20.20;99.90
16829;DHT22;8531;48.078;11.968;2023-08-30T12:05:47;20.10;99.90
16829;DHT22;8531;48.078;11.968;2023-08-30T12:08:27;20.00;99.90
16829;DHT22;8531;48.078;11.968;2023-08-30T12:10:53;19.90;99.90
16829;DHT22;8531;48.078;11.968;2023-08-30T12:13:27;19.60;99.90
16829;DHT22;8531;48.078;11.968;2023-08-30T12:15:56;19.60;99.90
16829;DHT22;8531;48.078;11.968;2023-08-30T12:21:03;19.60;99.90
16829;DHT22;8531;48.078;11.968;2023-08-30T12:23:30;19.80;99.90
16829;DHT22;8531;48.078;11.968;2023-08-30T12:26:10;19.80;99.90
16829;DHT22;8531;48.078;11.968;2023-08-30T12:28:40;19.80;99.90
16829;DHT22;8531;48.078;11.968;2023-08-30T12:31:07;19.80;99.90
16829;DHT22;8531;48.078;11.968;2023-08-30T12:33:36;19.80;99.90
16829;DHT22;8531;48.078;11.968;2023-08-30T12:36:03;19.70;99.90
16829;DHT22;8531;48.078;11.968;2023-08-30T12:38:29;19.50;99.90
16829;DHT22;8531;48.078;11.968;2023-08-30T12:40:56;19.30;99.90
16829;DHT22;8531;48.078;11.968;2023-08-30T12:43:22;19.10;99.90
16829;DHT22;8531;48.078;11.968;2023-08-30T12:45:49;19.20;99.90
16829;DHT22;8531;48.078;11.968;2023-08-30T12:48:16;19.10;99.90
16829;DHT22;8531;48.078;11.968;2023-08-30T12:50:44;18.90;99.90
16829;DHT22;8531;48.078;11.968;2023-08-30T12:53:10;18.90;99.90
16829;DHT22;8531;48.078;11.968;2023-08-30T12:55:36;19.10;99.90
16829;DHT22;8531;48.078;11.968;2023-08-30T12:58:06;19.20;99.90
16829;DHT22;8531;48.078;11.968;2023-08-30T13:00:33;19.10;99.90
16829;DHT22;8531;48.078;11.968;2023-08-30T13:02:59;19.20;99.90
16829;DHT22;8531;48.078;11.968;2023-08-30T13:05:25;19.20;99.90
16829;DHT22;8531;48.078;11.968;2023-08-30T13:07:51;19.20;99.90
16829;DHT22;8531;48.078;11.968;2023-08-30T13:10:17;19.20;99.90
16829;DHT22;8531;48.078;11.968;2023-08-30T13:12:43;19.00;99.90
16829;DHT22;8531;48.078;11.968;2023-08-30T13:15:09;19.00;99.90
16829;DHT22;8531;48.078;11.968;2023-08-30T13:17:35;19.00;99.90
16829;DHT22;8531;48.078;11.968;2023-08-30T13:20:01;19.00;99.90
16829;DHT22;8531;48.078;11.968;2023-08-30T13:22:29;19.20;99.90
16829;DHT22;8531;48.078;11.968;2023-08-30T13:24:56;19.40;99.90
16829;DHT22;8531;48.078;11.968;2023-08-30T13:27:24;19.50;99.90
16829;DHT22;8531;48.078;11.968;2023-08-30T13:29:49;19.50;99.90
16829;DHT22;8531;48.078;11.968;2023-08-30T13:32:15;19.60;99.90
16829;DHT22;8531;48.078;11.968;2023-08-30T13:34:41;19.50;99.90
16829;DHT22;8531;48.078;11.968;2023-08-30T13:37:11;19.70;99.90
16829;DHT22;8531;48.078;11.968;2023-08-30T13:39:40;19.70;99.90
16829;DHT22;8531;48.078;11.968;2023-08-30T13:42:06;19.90;99.90
16829;DHT22;8531;48.078;11.968;2023-08-30T13:44:32;19.60;99.90
16829;DHT22;8531;48.078;11.968;2023-08-30T13:46:58;19.40;99.90
16829;DHT22;8531;48.078;11.968;2023-08-30T13:49:24;19.10;99.90
16829;DHT22;8531;48.078;11.968;2023-08-30T13:51:50;19.10;99.90
16829;DHT22;8531;48.078;11.968;2023-08-30T13:54:15;19.30;99.90
16829;DHT22;8531;48.078;11.968;2023-08-30T13:56:41;19.30;99.90
16829;DHT22;8531;48.078;11.968;2023-08-30T13:59:07;19.20;99.90
16829;DHT22;8531;48.078;11.968;2023-08-30T14:01:33;19.10;99.90
16829;DHT22;8531;48.078;11.968;2023-08-30T14:04:00;19.00;99.90
16829;DHT22;8531;48.078;11.968;2023-08-30T14:06:26;18.90;99.90
16829;DHT22;8531;48.078;11.968;2023-08-30T14:08:52;18.70;99.90
16829;DHT22;8531;48.078;11.968;2023-08-30T14:11:18;18.60;99.90
16829;DHT22;8531;48.078;11.968;2023-08-30T14:13:44;18.50;99.90
16829;DHT22;8531;48.078;11.968;2023-08-30T14:16:10;18.50;99.90
16829;DHT22;8531;48.078;11.968;2023-08-30T14:18:36;18.40;99.90
16829;DHT22;8531;48.078;11.968;2023-08-30T14:21:02;18.30;99.90
16829;DHT22;8531;48.078;11.968;2023-08-30T14:23:29;18.20;99.90
16829;DHT22;8531;48.078;11.968;2023-08-30T14:25:59;18.40;99.90
16829;DHT22;8531;48.078;11.968;2023-08-30T14:28:28;18.30;99.90
16829;DHT22;8531;48.078;11.968;2023-08-30T14:30:54;18.40;99.90
16829;DHT22;8531;48.078;11.968;2023-08-30T14:33:20;18.40;99.90
16829;DHT22;8531;48.078;11.968;2023-08-30T14:35:46;18.30;99.90
16829;DHT22;8531;48.078;11.968;2023-08-30T14:38:12;18.40;99.90
16829;DHT22;8531;48.078;11.968;2023-08-30T14:40:37;18.40;99.90
16829;DHT22;8531;48.078;11.968;2023-08-30T14:43:04;18.30;99.90
16829;DHT22;8531;48.078;11.968;2023-08-30T14:45:30;18.30;99.90
16829;DHT22;8531;48.078;11.968;2023-08-30T14:47:57;18.20;99.90
16829;DHT22;8531;48.078;11.968;2023-08-30T14:50:23;18.20;99.90
16829;DHT22;8531;48.078;11.968;2023-08-30T14:52:49;18.20;99.90
16829;DHT22;8531;48.078;11.968;2023-08-30T14:55:16;17.90;99.90
16829;DHT22;8531;48.078;11.968;2023-08-30T14:57:42;17.80;99.90
16829;DHT22;8531;48.078;11.968;2023-08-30T15:00:08;17.70;99.90
16829;DHT22;8531;48.078;11.968;2023-08-30T15:02:33;17.70;99.90
16829;DHT22;8531;48.078;11.968;2023-08-30T15:04:59;17.80;99.90
16829;DHT22;8531;48.078;11.968;2023-08-30T15:07:25;17.50;99.90
16829;DHT22;8531;48.078;11.968;2023-08-30T15:09:52;17.40;99.90
16829;DHT22;8531;48.078;11.968;2023-08-30T15:12:18;17.30;99.90
16829;DHT22;8531;48.078;11.968;2023-08-30T15:14:43;17.30;99.90
16829;DHT22;8531;48.078;11.968;2023-08-30T15:17:09;17.30;99.90
16829;DHT22;8531;48.078;11.968;2023-08-30T15:19:36;17.40;99.90
16829;DHT22;8531;48.078;11.968;2023-08-30T15:22:02;17.40;99.90
16829;DHT22;8531;48.078;11.968;2023-08-30T15:24:28;17.40;99.90
16829;DHT22;8531;48.078;11.968;2023-08-30T15:26:53;17.40;99.90
16829;DHT22;8531;48.078;11.968;2023-08-30T15:29:19;17.30;99.90
16829;DHT22;8531;48.078;11.968;2023-08-30T15:31:45;17.20;99.90
16829;DHT22;8531;48.078;11.968;2023-08-30T15:34:18;17.10;99.90
16829;DHT22;8531;48.078;11.968;2023-08-30T15:36:44;17.10;99.90